Terminal Aerodrome Forecast
Issued by NWS Milwaukee/Sullivan, WI

Home | Current Version | Previous Version | Text Only | Print | Product List | Glossary On
Versions: 1 2 3 4 5 6 7 8 9 10 11 12 13 14 15 16 17 18 19 20 21 22 23 24 25 26 27 28 29 30 31 32 33 34 35 36 37 38 39 40 41 42 43 44 45 46 47 48
000
FTUS43 KMKX 280533
TAFMKE
TAF
KMKE 280533Z 2806/0112 15008KT P6SM OVC130
     FM280800 15008KT P6SM -SHRA OVC060
     FM281200 16007KT 4SM BR OVC008
     FM281500 18008KT P6SM VCSH OVC008
     FM282100 18008KT 5SM BR VCSH OVC003
     FM282300 19007KT 2SM SHRA BR VCTS OVC003CB
     FM010200 25006KT 2SM SHRA BR OVC003
     FM010400 29007KT 3SM SHRA BR OVC003
     FM010600 35008KT 3SM -SHRA BR OVC003=

USA.gov is the U.S. government's official web portal to all federal, state and local government web resources and services.